createdAt,value
2023-05-24T00:00:09.550Z,63.80
2023-05-24T00:02:37.958Z,63.55
2023-05-24T00:05:05.405Z,63.39
2023-05-24T00:07:31.862Z,63.16
2023-05-24T00:09:58.299Z,63.13
2023-05-24T00:12:25.056Z,63.49
2023-05-24T00:14:51.790Z,63.30
2023-05-24T00:17:18.230Z,63.21
2023-05-24T00:19:44.625Z,62.54
2023-05-24T00:22:11.919Z,63.56
2023-05-24T00:24:38.345Z,62.97
2023-05-24T00:27:04.954Z,62.68
2023-05-24T00:29:32.380Z,62.33
2023-05-24T00:31:58.905Z,62.77
2023-05-24T00:34:25.329Z,62.53
2023-05-24T00:36:51.812Z,62.23
2023-05-24T00:39:18.213Z,61.67
2023-05-24T00:41:44.618Z,62.05
2023-05-24T00:44:11.304Z,61.95
2023-05-24T00:46:38.173Z,61.88
2023-05-24T00:49:04.805Z,62.34
2023-05-24T00:51:32.538Z,61.84
2023-05-24T00:53:59.525Z,61.75
2023-05-24T00:56:27.822Z,62.40
2023-05-24T00:58:57.108Z,61.87
2023-05-24T01:01:26.549Z,61.68
2023-05-24T01:03:54.435Z,61.72
2023-05-24T01:06:21.699Z,61.75
2023-05-24T01:08:54.224Z,62.32
2023-05-24T01:11:50.798Z,63.17
2023-05-24T01:14:29.223Z,63.02
2023-05-24T01:17:04.142Z,62.62
2023-05-24T01:19:51.341Z,63.60
2023-05-24T01:22:50.847Z,63.02
2023-05-24T01:25:28.324Z,63.57
2023-05-24T01:27:55.278Z,64.09
2023-05-24T01:30:22.211Z,63.89
2023-05-24T01:32:49.098Z,63.51
2023-05-24T01:35:15.653Z,63.18
2023-05-24T01:37:42.058Z,63.55
2023-05-24T01:40:09.201Z,63.59
2023-05-24T01:42:46.408Z,63.36
2023-05-24T01:45:31.229Z,63.22
2023-05-24T01:48:18.714Z,64.38
2023-05-24T01:51:04.995Z,64.55
2023-05-24T01:53:41.566Z,63.84
2023-05-24T01:56:09.981Z,64.47
2023-05-24T01:58:37.518Z,65.73
2023-05-24T02:01:04.040Z,64.37
2023-05-24T02:03:31.333Z,65.44
2023-05-24T02:05:57.825Z,64.13
2023-05-24T02:08:24.234Z,64.36
2023-05-24T02:10:50.650Z,64.93
2023-05-24T02:13:18.219Z,64.86
2023-05-24T02:15:44.849Z,64.53
2023-05-24T02:18:11.358Z,64.42
2023-05-24T02:20:37.939Z,65.27
2023-05-24T02:23:04.453Z,65.92
2023-05-24T02:25:32.114Z,65.55
2023-05-24T02:27:59.580Z,65.57
2023-05-24T02:30:27.125Z,65.92
2023-05-24T02:32:53.618Z,65.26
2023-05-24T02:35:20.621Z,65.71
2023-05-24T02:37:47.073Z,65.01
2023-05-24T02:40:13.529Z,65.53
2023-05-24T02:42:39.988Z,65.60
2023-05-24T02:45:07.062Z,66.25
2023-05-24T02:47:33.559Z,65.28
2023-05-24T02:49:59.985Z,65.12
2023-05-24T02:52:26.720Z,65.90
2023-05-24T02:54:53.139Z,65.95
2023-05-24T02:57:19.553Z,65.67
2023-05-24T02:59:45.956Z,66.41
2023-05-24T03:02:13.743Z,66.30
2023-05-24T03:04:40.367Z,66.97
2023-05-24T03:07:06.792Z,66.27
2023-05-24T03:09:33.474Z,66.90
2023-05-24T03:11:59.902Z,66.20
2023-05-24T03:14:26.307Z,66.55
2023-05-24T03:16:52.751Z,65.79
2023-05-24T03:19:19.197Z,67.22
2023-05-24T03:21:45.612Z,66.50
2023-05-24T03:24:13.183Z,66.07
2023-05-24T03:26:42.608Z,66.27
2023-05-24T03:29:09.065Z,66.91
2023-05-24T03:31:35.558Z,66.63
2023-05-24T03:34:02.024Z,66.28
2023-05-24T03:36:29.219Z,66.43
2023-05-24T03:38:58.172Z,65.77
2023-05-24T03:41:24.820Z,66.47
2023-05-24T03:43:52.622Z,66.48
2023-05-24T03:46:19.135Z,66.29
2023-05-24T03:48:45.620Z,65.68
2023-05-24T03:51:12.036Z,66.26
2023-05-24T03:53:38.459Z,66.04
2023-05-24T03:56:04.936Z,66.42
2023-05-24T03:58:31.376Z,66.12
2023-05-24T04:00:57.787Z,65.49
2023-05-24T04:03:26.020Z,65.54
2023-05-24T04:05:53.782Z,65.24
2023-05-24T04:08:20.210Z,64.67
2023-05-24T04:10:46.631Z,64.86
2023-05-24T04:13:13.042Z,63.87
2023-05-24T04:15:39.462Z,63.32
2023-05-24T04:18:06.023Z,62.87
2023-05-24T04:20:32.700Z,64.45
2023-05-24T04:22:59.223Z,64.13
2023-05-24T04:25:26.824Z,63.70
2023-05-24T04:27:53.572Z,63.36
2023-05-24T04:30:21.254Z,62.72
2023-05-24T04:32:48.504Z,63.53
2023-05-24T04:35:15.491Z,63.37
2023-05-24T04:37:42.209Z,65.11
2023-05-24T04:40:09.311Z,64.88
2023-05-24T04:42:35.793Z,64.83
2023-05-24T04:45:02.901Z,64.05
2023-05-24T04:47:29.809Z,64.38
2023-05-24T04:49:56.296Z,64.74
2023-05-24T04:52:22.756Z,64.10
2023-05-24T04:54:49.939Z,64.37
2023-05-24T04:57:16.511Z,64.32
2023-05-24T04:59:43.620Z,64.54
2023-05-24T05:02:10.211Z,64.74
2023-05-24T05:04:36.675Z,63.90
2023-05-24T05:07:03.813Z,63.06
2023-05-24T05:09:30.440Z,63.83
2023-05-24T05:11:56.889Z,63.32
2023-05-24T05:14:23.303Z,63.46
2023-05-24T05:16:49.894Z,63.51
2023-05-24T05:19:16.521Z,62.37
2023-05-24T05:21:42.960Z,63.36
2023-05-24T05:24:09.574Z,62.73
2023-05-24T05:26:36.025Z,62.10
2023-05-24T05:29:02.479Z,62.51
2023-05-24T05:31:29.676Z,62.93
2023-05-24T05:33:56.209Z,62.82
2023-05-24T05:36:22.725Z,63.02
2023-05-24T05:38:49.135Z,62.89
2023-05-24T05:41:15.683Z,63.42
2023-05-24T05:43:42.103Z,64.44
2023-05-24T05:46:08.592Z,63.46
2023-05-24T05:48:35.045Z,62.58
2023-05-24T05:51:01.462Z,62.48
2023-05-24T05:53:27.882Z,63.24
2023-05-24T05:55:54.390Z,62.56
2023-05-24T05:58:21.013Z,62.94
2023-05-24T06:00:47.421Z,62.70
2023-05-24T06:03:14.028Z,62.15
2023-05-24T06:05:40.623Z,63.86
2023-05-24T06:08:07.039Z,61.79
2023-05-24T06:10:33.540Z,62.34
2023-05-24T06:13:02.965Z,63.05
2023-05-24T06:15:29.494Z,62.49
2023-05-24T06:17:55.944Z,63.23
2023-05-24T06:20:22.989Z,62.12
2023-05-24T06:22:50.633Z,63.04
2023-05-24T06:25:19.532Z,61.87
2023-05-24T06:27:46.091Z,63.27
2023-05-24T06:30:13.446Z,63.82
2023-05-24T06:32:40.123Z,61.72
2023-05-24T06:35:07.858Z,63.47
2023-05-24T06:37:34.450Z,61.76
2023-05-24T06:40:00.979Z,62.20
2023-05-24T06:42:27.461Z,63.84
2023-05-24T06:44:54.232Z,63.48
2023-05-24T06:47:22.252Z,63.96
2023-05-24T06:49:49.946Z,63.65
2023-05-24T06:52:16.658Z,63.30
2023-05-24T06:54:43.128Z,61.88
2023-05-24T06:57:09.542Z,62.46
2023-05-24T06:59:36.311Z,63.74
2023-05-24T07:02:04.156Z,62.27
2023-05-24T07:04:31.207Z,62.96
2023-05-24T07:06:58.321Z,63.69
2023-05-24T07:09:24.942Z,63.54
2023-05-24T07:11:51.498Z,63.87
2023-05-24T07:14:17.905Z,62.30
2023-05-24T07:16:44.349Z,61.55
2023-05-24T07:19:10.826Z,63.03
2023-05-24T07:21:37.573Z,61.87
2023-05-24T07:24:04.338Z,62.93
2023-05-24T07:26:30.821Z,60.82
2023-05-24T07:28:57.313Z,58.54
2023-05-24T07:31:23.760Z,61.67
2023-05-24T07:33:50.196Z,61.49
2023-05-24T07:36:16.613Z,60.97
2023-05-24T07:38:43.515Z,60.02
2023-05-24T07:41:09.954Z,61.39
2023-05-24T07:43:37.585Z,62.32
2023-05-24T07:46:04.366Z,61.51
2023-05-24T07:48:31.141Z,61.71
2023-05-24T07:50:57.585Z,62.00
2023-05-24T07:53:24.077Z,61.44
2023-05-24T07:55:51.701Z,61.49
2023-05-24T07:58:18.150Z,61.07
2023-05-24T08:00:44.586Z,61.31
2023-05-24T08:03:14.445Z,61.88
2023-05-24T08:05:41.118Z,59.49
2023-05-24T08:08:07.860Z,59.41
2023-05-24T08:10:34.484Z,60.76
2023-05-24T08:13:01.101Z,60.77
2023-05-24T08:15:27.497Z,59.37
2023-05-24T08:17:53.981Z,59.86
2023-05-24T08:20:20.936Z,57.97
2023-05-24T08:22:48.576Z,59.64
2023-05-24T08:25:15.385Z,59.10
2023-05-24T08:27:41.856Z,60.44
2023-05-24T08:30:08.756Z,61.85
2023-05-24T08:32:35.356Z,61.07
2023-05-24T08:35:18.404Z,60.84
2023-05-24T08:37:46.056Z,59.48
2023-05-24T08:40:12.791Z,59.73
2023-05-24T08:42:39.814Z,58.09
2023-05-24T08:45:12.548Z,58.07
2023-05-24T08:47:39.887Z,58.90
2023-05-24T08:50:07.296Z,58.72
2023-05-24T08:52:34.184Z,59.20
2023-05-24T08:55:01.478Z,58.52
2023-05-24T08:57:28.098Z,58.30
2023-05-24T08:59:56.216Z,59.32
2023-05-24T09:02:23.786Z,58.43
2023-05-24T09:04:52.808Z,60.26
2023-05-24T09:07:24.051Z,59.38
2023-05-24T09:09:57.959Z,59.09
2023-05-24T09:12:36.297Z,60.12
2023-05-24T09:15:06.617Z,57.32
2023-05-24T09:17:34.759Z,58.29
2023-05-24T09:20:01.526Z,59.63
2023-05-24T09:22:30.565Z,58.39
2023-05-24T09:25:08.036Z,58.56
2023-05-24T09:27:35.171Z,58.24
2023-05-24T09:30:03.365Z,56.92
2023-05-24T09:32:31.508Z,57.13
2023-05-24T09:34:59.024Z,58.49
2023-05-24T09:37:32.729Z,57.04
2023-05-24T09:40:00.063Z,57.05
2023-05-24T09:42:28.787Z,56.79
2023-05-24T09:45:09.345Z,56.68
2023-05-24T09:47:37.626Z,56.89
2023-05-24T09:50:06.900Z,57.43
2023-05-24T09:52:37.077Z,55.09
2023-05-24T09:55:20.242Z,56.23
2023-05-24T09:57:53.135Z,56.64
2023-05-24T10:00:23.747Z,55.56
2023-05-24T10:03:13.669Z,58.66
2023-05-24T10:05:46.913Z,57.02
2023-05-24T10:08:14.468Z,57.12
2023-05-24T10:10:42.784Z,54.67
2023-05-24T10:13:10.346Z,55.08
2023-05-24T10:15:36.793Z,55.31
2023-05-24T10:18:10.375Z,55.80
2023-05-24T10:20:41.148Z,53.53
2023-05-24T10:23:10.159Z,50.75
2023-05-24T10:25:41.119Z,55.03
2023-05-24T10:28:12.657Z,52.98
2023-05-24T10:30:52.404Z,53.30
2023-05-24T10:33:21.109Z,51.25
2023-05-24T10:35:47.709Z,50.04
2023-05-24T10:38:14.281Z,49.47
2023-05-24T10:40:42.732Z,50.84
2023-05-24T10:43:10.134Z,50.92
2023-05-24T10:45:39.119Z,49.78
2023-05-24T10:48:15.543Z,50.00
2023-05-24T10:50:43.071Z,50.33
2023-05-24T10:53:13.273Z,49.47
2023-05-24T10:55:57.268Z,52.37
2023-05-24T10:58:42.495Z,51.36
2023-05-24T11:01:27.012Z,49.30
2023-05-24T11:04:05.040Z,49.52
2023-05-24T11:06:54.159Z,51.90
2023-05-24T11:09:21.059Z,53.08
2023-05-24T11:11:54.744Z,51.96
2023-05-24T11:14:27.712Z,51.28
2023-05-24T11:16:54.772Z,51.34
2023-05-24T11:19:30.743Z,50.60
2023-05-24T11:22:01.301Z,49.73
2023-05-24T11:24:28.968Z,49.14
2023-05-24T11:26:57.187Z,48.54
2023-05-24T11:29:24.219Z,48.76
2023-05-24T11:32:04.285Z,48.07
2023-05-24T11:34:32.104Z,46.71
2023-05-24T11:37:00.423Z,46.66
2023-05-24T11:39:35.474Z,46.63
2023-05-24T11:42:06.347Z,45.00
2023-05-24T11:44:33.496Z,46.74
2023-05-24T11:47:05.149Z,45.40
2023-05-24T11:49:31.593Z,44.82
2023-05-24T11:51:59.088Z,45.45
2023-05-24T11:54:27.333Z,45.08
2023-05-24T11:56:54.508Z,46.69
2023-05-24T11:59:26.041Z,48.19
2023-05-24T12:02:03.080Z,50.04
2023-05-24T12:04:30.962Z,49.14
2023-05-24T12:06:58.016Z,50.26
2023-05-24T12:09:25.217Z,49.31
2023-05-24T12:11:52.759Z,49.12
2023-05-24T12:14:23.582Z,49.29
2023-05-24T12:16:50.440Z,49.02
2023-05-24T12:19:31.846Z,48.90
2023-05-24T12:22:01.073Z,47.43
2023-05-24T12:24:28.107Z,47.80
2023-05-24T12:27:01.688Z,48.49
2023-05-24T12:29:33.117Z,46.31
2023-05-24T12:31:59.781Z,46.24
2023-05-24T12:34:26.477Z,45.71
2023-05-24T12:36:53.359Z,45.25
2023-05-24T12:39:36.763Z,44.95
2023-05-24T12:42:04.397Z,45.80
2023-05-24T12:44:32.917Z,43.60
2023-05-24T12:47:01.501Z,41.82
2023-05-24T12:49:28.184Z,43.07
2023-05-24T12:51:55.697Z,40.68
2023-05-24T12:54:26.764Z,43.56
2023-05-24T12:56:56.619Z,44.37
2023-05-24T12:59:23.646Z,45.83
2023-05-24T13:01:53.421Z,44.10
2023-05-24T13:04:21.853Z,46.63
2023-05-24T13:06:48.858Z,45.78
2023-05-24T13:09:18.089Z,47.97
2023-05-24T19:54:57.739Z,59.30
2023-05-24T19:57:24.163Z,59.60
2023-05-24T19:59:50.563Z,59.23
2023-05-24T20:02:16.998Z,60.06
2023-05-24T20:04:43.989Z,60.01
2023-05-24T20:07:10.821Z,59.95
2023-05-24T20:09:37.318Z,60.25
2023-05-24T20:12:04.484Z,60.88
2023-05-24T20:14:31.605Z,60.20
2023-05-24T20:16:58.726Z,60.17
2023-05-24T20:19:26.191Z,60.19
2023-05-24T20:21:52.962Z,60.48
2023-05-24T20:24:19.467Z,60.76
2023-05-24T20:26:45.952Z,60.21
2023-05-24T20:29:12.368Z,60.42
2023-05-24T20:31:39.137Z,60.96
2023-05-24T20:34:05.606Z,60.85
2023-05-24T20:36:32.830Z,60.77
2023-05-24T20:38:59.375Z,60.83
2023-05-24T20:44:26.684Z,61.65
2023-05-24T20:47:34.836Z,61.73
2023-05-24T20:49:59.173Z,61.64
2023-05-24T20:52:25.579Z,61.84
2023-05-24T20:54:52.018Z,61.89
2023-05-24T20:57:18.443Z,62.31
2023-05-24T20:59:44.919Z,61.41
2023-05-24T21:02:11.370Z,61.84
2023-05-24T21:04:37.862Z,61.26
2023-05-24T21:07:04.466Z,61.92
2023-05-24T21:09:30.891Z,62.50
2023-05-24T21:11:57.327Z,62.56
2023-05-24T21:14:23.715Z,62.24
2023-05-24T21:16:50.137Z,62.14
2023-05-24T21:19:16.609Z,63.03
2023-05-24T21:21:43.053Z,62.79
2023-05-24T21:24:09.446Z,63.07
2023-05-24T21:26:35.875Z,63.15
2023-05-24T21:29:02.299Z,64.53
2023-05-24T21:31:30.035Z,64.16
2023-05-24T21:33:56.760Z,64.41
2023-05-24T21:36:23.230Z,64.56
2023-05-24T21:38:49.666Z,64.84
2023-05-24T21:41:16.087Z,65.39
2023-05-24T21:43:42.853Z,65.49
2023-05-24T21:46:09.352Z,65.22
2023-05-24T21:48:35.764Z,65.52
2023-05-24T21:51:02.236Z,65.50
2023-05-24T21:53:28.633Z,66.28
2023-05-24T21:55:55.060Z,66.12
2023-05-24T21:58:21.521Z,66.39
2023-05-24T22:00:47.950Z,66.76
2023-05-24T22:03:14.658Z,66.72
2023-05-24T22:05:41.163Z,66.92
2023-05-24T22:08:07.615Z,67.07
2023-05-24T22:10:34.193Z,67.61
2023-05-24T22:13:01.475Z,67.43
2023-05-24T22:15:28.311Z,67.29
2023-05-24T22:17:58.517Z,67.40
2023-05-24T22:20:26.208Z,68.31
2023-05-24T22:22:53.642Z,68.08
2023-05-24T22:25:20.924Z,68.99
2023-05-24T22:27:51.385Z,69.44
2023-05-24T22:30:17.883Z,69.57
2023-05-24T22:32:44.367Z,70.19
2023-05-24T22:35:10.913Z,69.48
2023-05-24T22:37:37.425Z,69.64
2023-05-24T22:40:04.763Z,69.54
2023-05-24T22:42:31.722Z,70.73
2023-05-24T22:44:58.141Z,70.13
2023-05-24T22:47:24.695Z,70.27
2023-05-24T22:49:54.101Z,70.29
2023-05-24T22:52:20.799Z,69.23
2023-05-24T22:54:47.256Z,70.02
2023-05-24T22:57:13.657Z,70.07
2023-05-24T22:59:40.087Z,69.55
2023-05-24T23:02:06.651Z,69.93
2023-05-24T23:04:33.554Z,69.88
2023-05-24T23:07:01.556Z,69.32
2023-05-24T23:09:34.713Z,69.81
2023-05-24T23:12:07.206Z,69.50
2023-05-24T23:14:38.250Z,69.77
2023-05-24T23:17:06.682Z,69.26
2023-05-24T23:19:33.261Z,68.75
2023-05-24T23:21:59.747Z,69.14
2023-05-24T23:24:26.833Z,69.68
2023-05-24T23:26:55.743Z,69.36
2023-05-24T23:29:22.443Z,69.53
2023-05-24T23:31:48.924Z,69.93
2023-05-24T23:34:15.499Z,69.89
2023-05-24T23:36:41.964Z,69.71
2023-05-24T23:39:10.975Z,69.32
2023-05-24T23:41:37.437Z,69.22
2023-05-24T23:44:03.875Z,69.51
2023-05-24T23:46:30.328Z,69.65
2023-05-24T23:48:56.821Z,69.21
2023-05-24T23:51:23.299Z,69.02
2023-05-24T23:53:49.733Z,69.90
2023-05-24T23:56:16.367Z,70.56
2023-05-24T23:58:43.834Z,69.41
